Time,TemperatureF,DewpointF,PressureIn,WindDirection,WindDirectionDegrees,WindSpeedMPH,WindSpeedGustMPH,Humidity,HourlyPrecipIn,Conditions,Clouds,dailyrainin,SoftwareType,DateUTC
2013-10-01 00:03:00,59.7,58.2,30.09,SW,225,0.0,0.0,95,0.00,,,0.00,WUHU216DAVISVP2,2013-10-01 04:03:00,
2013-10-01 00:08:00,59.6,58.2,30.09,SW,225,0.0,0.0,95,0.00,,,0.00,WUHU216DAVISVP2,2013-10-01 04:08:00,
2013-10-01 00:13:00,59.7,58.2,30.09,SW,225,0.0,0.0,95,0.00,,,0.00,WUHU216DAVISVP2,2013-10-01 04:13:00,
2013-10-01 00:18:00,59.9,58.4,30.09,SW,225,0.0,0.0,95,0.00,,,0.00,WUHU216DAVISVP2,2013-10-01 04:18:00,
2013-10-01 00:24:00,59.8,58.3,30.09,SW,225,0.0,0.0,95,0.00,,,0.00,WUHU216DAVISVP2,2013-10-01 04:24:00,
2013-10-01 00:29:00,59.8,58.3,30.09,SW,225,0.0,0.0,95,0.00,,,0.00,WUHU216DAVISVP2,2013-10-01 04:29:00,
2013-10-01 00:34:00,59.6,58.1,30.09,SW,225,0.0,0.0,95,0.00,,,0.00,WUHU216DAVISVP2,2013-10-01 04:34:00,
2013-10-01 00:39:00,59.5,58.0,30.09,SW,225,0.0,0.0,95,0.00,,,0.00,WUHU216DAVISVP2,2013-10-01 04:39:00,
2013-10-01 00:44:00,59.5,58.0,30.09,SW,225,0.0,0.0,95,0.00,,,0.00,WUHU216DAVISVP2,2013-10-01 04:44:00,
2013-10-01 00:49:00,59.5,58.0,30.09,SW,225,0.0,0.0,95,0.00,,,0.00,WUHU216DAVISVP2,2013-10-01 04:49:00,
2013-10-01 00:54:00,59.5,58.0,30.09,SW,225,0.0,0.0,95,0.00,,,0.00,WUHU216DAVISVP2,2013-10-01 04:54:00,
2013-10-01 01:00:00,59.4,57.9,30.09,SW,225,0.0,0.0,95,0.00,,,0.00,WUHU216DAVISVP2,2013-10-01 05:00:00,
2013-10-01 01:05:00,59.3,57.8,30.09,SW,225,0.0,0.0,95,0.00,,,0.00,WUHU216DAVISVP2,2013-10-01 05:05:00,
2013-10-01 01:10:00,59.0,57.5,30.09,SW,225,0.0,0.0,95,0.00,,,0.00,WUHU216DAVISVP2,2013-10-01 05:10:00,
2013-10-01 01:15:00,58.8,57.3,30.08,SW,225,0.0,0.0,95,0.00,,,0.00,WUHU216DAVISVP2,2013-10-01 05:15:00,
2013-10-01 01:20:00,58.7,57.3,30.08,SW,225,0.0,0.0,95,0.00,,,0.00,WUHU216DAVISVP2,2013-10-01 05:20:00,
2013-10-01 01:25:00,58.5,57.0,30.08,SW,225,0.0,0.0,95,0.00,,,0.00,WUHU216DAVISVP2,2013-10-01 05:25:00,
2013-10-01 01:31:00,58.5,57.1,30.08,SW,225,0.0,0.0,95,0.00,,,0.00,WUHU216DAVISVP2,2013-10-01 05:31:00,
2013-10-01 01:36:00,58.4,57.0,30.09,SW,225,0.0,0.0,95,0.00,,,0.00,WUHU216DAVISVP2,2013-10-01 05:36:00,
2013-10-01 01:41:00,58.4,57.0,30.09,SW,225,0.0,0.0,95,0.00,,,0.00,WUHU216DAVISVP2,2013-10-01 05:41:00,
2013-10-01 01:46:00,58.3,56.8,30.09,SW,225,0.0,0.0,95,0.00,,,0.00,WUHU216DAVISVP2,2013-10-01 05:46:00,
2013-10-01 01:51:00,58.2,56.7,30.09,SW,225,0.0,0.0,95,0.00,,,0.00,WUHU216DAVISVP2,2013-10-01 05:51:00,
2013-10-01 01:56:00,58.1,56.6,30.09,SW,225,0.0,0.0,95,0.00,,,0.00,WUHU216DAVISVP2,2013-10-01 05:56:00,
2013-10-01 02:01:00,58.1,56.7,30.09,SW,225,0.0,0.0,95,0.00,,,0.00,WUHU216DAVISVP2,2013-10-01 06:01:00,
2013-10-01 02:07:00,58.0,56.5,30.09,SW,225,0.0,0.0,95,0.00,,,0.00,WUHU216DAVISVP2,2013-10-01 06:07:00,
2013-10-01 02:12:00,57.9,56.7,30.09,SW,225,0.0,0.0,96,0.00,,,0.00,WUHU216DAVISVP2,2013-10-01 06:12:00,
2013-10-01 02:17:00,57.9,56.7,30.09,SW,225,0.0,0.0,96,0.00,,,0.00,WUHU216DAVISVP2,2013-10-01 06:17:00,
2013-10-01 02:22:00,57.8,56.6,30.10,SW,225,0.0,0.0,96,0.00,,,0.00,WUHU216DAVISVP2,2013-10-01 06:22:00,
2013-10-01 02:27:00,57.7,56.2,30.10,SW,225,0.0,0.0,95,0.00,,,0.00,WUHU216DAVISVP2,2013-10-01 06:27:00,
2013-10-01 02:32:00,57.7,56.6,30.10,SW,225,0.0,0.0,96,0.00,,,0.00,WUHU216DAVISVP2,2013-10-01 06:32:00,
2013-10-01 02:37:00,57.6,56.5,30.10,SW,225,0.0,0.0,96,0.00,,,0.00,WUHU216DAVISVP2,2013-10-01 06:37:00,
2013-10-01 02:43:00,57.6,56.5,30.10,SW,225,0.0,0.0,96,0.00,,,0.00,WUHU216DAVISVP2,2013-10-01 06:43:00,
2013-10-01 02:48:00,57.6,56.4,30.10,SW,225,0.0,0.0,96,0.00,,,0.00,WUHU216DAVISVP2,2013-10-01 06:48:00,
2013-10-01 02:53:00,57.5,56.3,30.10,SW,225,0.0,0.0,96,0.00,,,0.00,WUHU216DAVISVP2,2013-10-01 06:53:00,
2013-10-01 02:58:00,57.5,56.3,30.10,SW,225,0.0,0.0,96,0.00,,,0.00,WUHU216DAVISVP2,2013-10-01 06:58:00,
2013-10-01 03:03:00,57.4,56.2,30.10,SW,225,0.0,0.0,96,0.00,,,0.00,WUHU216DAVISVP2,2013-10-01 07:03:00,
2013-10-01 03:08:00,57.3,56.1,30.10,SW,225,0.0,0.0,96,0.00,,,0.00,WUHU216DAVISVP2,2013-10-01 07:08:00,
2013-10-01 03:14:00,57.2,56.0,30.10,SW,225,0.0,0.0,96,0.00,,,0.00,WUHU216DAVISVP2,2013-10-01 07:14:00,
2013-10-01 03:19:00,57.2,56.0,30.10,SW,225,0.0,0.0,96,0.00,,,0.00,WUHU216DAVISVP2,2013-10-01 07:19:00,
2013-10-01 03:24:00,57.2,56.0,30.10,SW,225,0.0,0.0,96,0.00,,,0.00,WUHU216DAVISVP2,2013-10-01 07:24:00,
2013-10-01 03:29:00,57.2,56.0,30.10,SW,225,0.0,0.0,96,0.00,,,0.00,WUHU216DAVISVP2,2013-10-01 07:29:00,
2013-10-01 03:35:00,57.1,55.9,30.10,SW,225,0.0,0.0,96,0.00,,,0.00,WUHU216DAVISVP2,2013-10-01 07:35:00,
2013-10-01 03:40:00,57.1,55.9,30.10,SW,225,0.0,0.0,96,0.00,,,0.00,WUHU216DAVISVP2,2013-10-01 07:40:00,
2013-10-01 03:45:00,57.2,56.1,30.10,SW,225,0.0,0.0,96,0.00,,,0.00,WUHU216DAVISVP2,2013-10-01 07:45:00,
2013-10-01 03:50:00,57.2,56.1,30.10,SW,225,0.0,0.0,96,0.00,,,0.00,WUHU216DAVISVP2,2013-10-01 07:50:00,
2013-10-01 03:55:00,57.3,56.2,30.10,SW,225,0.0,0.0,96,0.00,,,0.00,WUHU216DAVISVP2,2013-10-01 07:55:00,
2013-10-01 04:00:00,57.3,56.1,30.10,SW,225,0.0,0.0,96,0.00,,,0.00,WUHU216DAVISVP2,2013-10-01 08:00:00,
2013-10-01 04:05:00,57.4,56.2,30.10,SW,225,0.0,0.0,96,0.00,,,0.00,WUHU216DAVISVP2,2013-10-01 08:05:00,
2013-10-01 04:11:00,57.4,56.2,30.10,SW,225,0.0,0.0,96,0.00,,,0.00,WUHU216DAVISVP2,2013-10-01 08:11:00,
2013-10-01 04:16:00,57.5,56.3,30.10,SW,225,0.0,0.0,96,0.00,,,0.00,WUHU216DAVISVP2,2013-10-01 08:16:00,
2013-10-01 04:21:00,57.5,56.3,30.11,SW,225,0.0,0.0,96,0.00,,,0.00,WUHU216DAVISVP2,2013-10-01 08:21:00,
2013-10-01 04:26:00,57.6,56.4,30.11,SW,225,0.0,0.0,96,0.00,,,0.00,WUHU216DAVISVP2,2013-10-01 08:26:00,
2013-10-01 04:31:00,57.8,56.6,30.11,SW,225,0.0,0.0,96,0.00,,,0.00,WUHU216DAVISVP2,2013-10-01 08:31:00,
2013-10-01 04:36:00,57.9,56.7,30.11,SW,225,0.0,0.0,96,0.00,,,0.00,WUHU216DAVISVP2,2013-10-01 08:36:00,
2013-10-01 04:42:00,58.0,56.8,30.11,SW,225,0.0,0.0,96,0.00,,,0.00,WUHU216DAVISVP2,2013-10-01 08:42:00,
2013-10-01 04:47:00,58.1,57.2,30.12,SW,225,0.0,0.0,97,0.00,,,0.00,WUHU216DAVISVP2,2013-10-01 08:47:00,
2013-10-01 04:52:00,58.2,57.3,30.12,SW,225,0.0,0.0,97,0.00,,,0.00,WUHU216DAVISVP2,2013-10-01 08:52:00,
2013-10-01 04:57:00,58.4,57.5,30.12,SW,225,0.0,0.0,97,0.00,,,0.00,WUHU216DAVISVP2,2013-10-01 08:57:00,
2013-10-01 05:02:00,58.6,57.7,30.12,SW,225,0.0,0.0,97,0.00,,,0.00,WUHU216DAVISVP2,2013-10-01 09:02:00,
2013-10-01 05:07:00,58.9,58.0,30.12,SW,225,0.0,0.0,97,0.00,,,0.00,WUHU216DAVISVP2,2013-10-01 09:07:00,
2013-10-01 05:12:00,59.1,58.2,30.12,SW,225,0.0,0.0,97,0.00,,,0.00,WUHU216DAVISVP2,2013-10-01 09:12:00,
2013-10-01 05:18:00,59.4,58.5,30.12,SW,225,0.0,0.0,97,0.00,,,0.00,WUHU216DAVISVP2,2013-10-01 09:18:00,
2013-10-01 05:23:00,59.7,58.8,30.12,SW,225,0.0,0.0,97,0.00,,,0.00,WUHU216DAVISVP2,2013-10-01 09:23:00,
2013-10-01 05:28:00,59.8,58.9,30.12,SW,225,0.0,0.0,97,0.00,,,0.00,WUHU216DAVISVP2,2013-10-01 09:28:00,
2013-10-01 05:33:00,59.8,58.9,30.12,SW,225,0.0,0.0,97,0.00,,,0.00,WUHU216DAVISVP2,2013-10-01 09:33:00,
2013-10-01 05:38:00,59.8,58.9,30.12,SW,225,0.0,0.0,97,0.00,,,0.00,WUHU216DAVISVP2,2013-10-01 09:38:00,
2013-10-01 05:43:00,59.7,58.8,30.13,SW,225,0.0,0.0,97,0.00,,,0.00,WUHU216DAVISVP2,2013-10-01 09:43:00,
2013-10-01 05:49:00,59.7,58.8,30.12,SW,225,0.0,0.0,97,0.00,,,0.00,WUHU216DAVISVP2,2013-10-01 09:49:00,
2013-10-01 05:54:00,59.6,58.4,30.13,SW,225,0.0,0.0,96,0.00,,,0.00,WUHU216DAVISVP2,2013-10-01 09:54:00,
2013-10-01 06:01:00,59.6,58.4,30.13,SW,225,0.0,0.0,96,0.00,,,0.00,WUHU216DAVISVP2,2013-10-01 10:01:00,
2013-10-01 06:07:00,59.6,58.4,30.13,SW,225,0.0,0.0,96,0.00,,,0.00,WUHU216DAVISVP2,2013-10-01 10:07:00,
2013-10-01 06:12:00,59.6,58.4,30.13,SW,225,0.0,0.0,96,0.00,,,0.00,WUHU216DAVISVP2,2013-10-01 10:12:00,
2013-10-01 06:17:00,59.6,58.4,30.14,SW,225,0.0,0.0,96,0.00,,,0.00,WUHU216DAVISVP2,2013-10-01 10:17:00,
2013-10-01 06:22:00,59.6,58.4,30.14,SW,225,0.0,0.0,96,0.00,,,0.00,WUHU216DAVISVP2,2013-10-01 10:22:00,
2013-10-01 06:27:00,59.6,58.4,30.14,SW,225,0.0,0.0,96,0.00,,,0.00,WUHU216DAVISVP2,2013-10-01 10:27:00,
2013-10-01 06:32:00,59.6,58.4,30.14,SW,225,0.0,0.0,96,0.00,,,0.00,WUHU216DAVISVP2,2013-10-01 10:32:00,
2013-10-01 06:38:00,59.7,58.6,30.14,SW,225,0.0,0.0,96,0.00,,,0.00,WUHU216DAVISVP2,2013-10-01 10:38:00,
2013-10-01 06:43:00,59.7,58.6,30.14,SW,225,0.0,0.0,96,0.00,,,0.00,WUHU216DAVISVP2,2013-10-01 10:43:00,
2013-10-01 06:48:00,59.8,58.7,30.14,SW,225,0.0,0.0,96,0.00,,,0.00,WUHU216DAVISVP2,2013-10-01 10:48:00,
2013-10-01 06:53:00,59.8,58.6,30.14,SW,225,0.0,0.0,96,0.00,,,0.00,WUHU216DAVISVP2,2013-10-01 10:53:00,
2013-10-01 06:58:00,59.8,58.6,30.14,SW,225,0.0,0.0,96,0.00,,,0.00,WUHU216DAVISVP2,2013-10-01 10:58:00,
2013-10-01 07:03:00,59.9,58.7,30.14,SW,225,0.0,0.0,96,0.00,,,0.00,WUHU216DAVISVP2,2013-10-01 11:03:00,
2013-10-01 07:09:00,59.9,58.7,30.15,SW,225,0.0,0.0,96,0.00,,,0.00,WUHU216DAVISVP2,2013-10-01 11:09:00,
2013-10-01 07:14:00,60.0,58.8,30.15,SW,225,0.0,0.0,96,0.00,,,0.00,WUHU216DAVISVP2,2013-10-01 11:14:00,
2013-10-01 07:19:00,60.0,58.8,30.15,SW,225,0.0,0.0,96,0.00,,,0.00,WUHU216DAVISVP2,2013-10-01 11:19:00,
2013-10-01 07:24:00,60.1,58.9,30.15,SW,225,0.0,0.0,96,0.00,,,0.00,WUHU216DAVISVP2,2013-10-01 11:24:00,
2013-10-01 07:29:00,60.1,58.9,30.15,SW,225,0.0,0.0,96,0.00,,,0.00,WUHU216DAVISVP2,2013-10-01 11:29:00,
2013-10-01 07:34:00,60.1,58.9,30.16,SW,225,0.0,0.0,96,0.00,,,0.00,WUHU216DAVISVP2,2013-10-01 11:34:00,
2013-10-01 07:40:00,60.1,58.9,30.15,SW,225,0.0,0.0,96,0.00,,,0.00,WUHU216DAVISVP2,2013-10-01 11:40:00,
2013-10-01 07:45:00,60.2,59.0,30.16,SW,225,0.0,0.0,96,0.00,,,0.00,WUHU216DAVISVP2,2013-10-01 11:45:00,
2013-10-01 07:50:00,60.2,59.1,30.16,SW,225,0.0,0.0,96,0.00,,,0.00,WUHU216DAVISVP2,2013-10-01 11:50:00,
2013-10-01 07:55:00,60.2,59.1,30.16,SW,225,0.0,0.0,96,0.00,,,0.00,WUHU216DAVISVP2,2013-10-01 11:55:00,
2013-10-01 08:00:00,60.2,59.1,30.16,SW,225,0.0,0.0,96,0.00,,,0.00,WUHU216DAVISVP2,2013-10-01 12:00:00,
2013-10-01 08:05:00,60.3,59.1,30.17,SW,225,0.0,0.0,96,0.00,,,0.00,WUHU216DAVISVP2,2013-10-01 12:05:00,
2013-10-01 08:11:00,60.3,59.1,30.17,SW,225,0.0,0.0,96,0.00,,,0.00,WUHU216DAVISVP2,2013-10-01 12:11:00,
2013-10-01 08:16:00,60.4,59.2,30.17,SW,225,0.0,0.0,96,0.00,,,0.00,WUHU216DAVISVP2,2013-10-01 12:16:00,
2013-10-01 08:21:00,60.4,59.2,30.17,SW,225,0.0,0.0,96,0.00,,,0.00,WUHU216DAVISVP2,2013-10-01 12:21:00,
2013-10-01 08:26:00,60.4,59.2,30.18,SW,225,0.0,0.0,96,0.00,,,0.00,WUHU216DAVISVP2,2013-10-01 12:26:00,
2013-10-01 08:31:00,60.5,59.3,30.18,SW,225,0.0,0.0,96,0.00,,,0.00,WUHU216DAVISVP2,2013-10-01 12:31:00,
2013-10-01 08:36:00,60.6,59.4,30.18,SW,225,0.0,0.0,96,0.00,,,0.00,WUHU216DAVISVP2,2013-10-01 12:36:00,
2013-10-01 08:41:00,60.7,59.5,30.18,SW,225,0.0,0.0,96,0.00,,,0.00,WUHU216DAVISVP2,2013-10-01 12:41:00,
2013-10-01 08:47:00,60.9,59.8,30.18,SW,225,0.0,0.0,96,0.00,,,0.00,WUHU216DAVISVP2,2013-10-01 12:47:00,
2013-10-01 08:52:00,61.0,59.9,30.18,SW,225,0.0,0.0,96,0.00,,,0.00,WUHU216DAVISVP2,2013-10-01 12:52:00,
2013-10-01 08:57:00,61.1,59.9,30.18,SW,225,0.0,0.0,96,0.00,,,0.00,WUHU216DAVISVP2,2013-10-01 12:57:00,
2013-10-01 09:02:00,61.3,60.1,30.18,SW,225,0.0,0.0,96,0.00,,,0.00,WUHU216DAVISVP2,2013-10-01 13:02:00,
2013-10-01 09:07:00,61.6,60.4,30.18,SW,225,0.0,0.0,96,0.00,,,0.00,WUHU216DAVISVP2,2013-10-01 13:07:00,
2013-10-01 09:12:00,61.7,60.5,30.18,SW,225,0.0,0.0,96,0.00,,,0.00,WUHU216DAVISVP2,2013-10-01 13:12:00,
2013-10-01 09:18:00,61.9,60.7,30.19,SW,225,0.0,0.0,96,0.00,,,0.00,WUHU216DAVISVP2,2013-10-01 13:18:00,
2013-10-01 09:23:00,62.0,60.8,30.19,SW,225,0.0,0.0,96,0.00,,,0.00,WUHU216DAVISVP2,2013-10-01 13:23:00,
2013-10-01 09:28:00,62.2,61.0,30.19,SW,225,0.0,0.0,96,0.00,,,0.00,WUHU216DAVISVP2,2013-10-01 13:28:00,
2013-10-01 09:33:00,62.5,61.3,30.19,SW,225,0.0,0.0,96,0.00,,,0.00,WUHU216DAVISVP2,2013-10-01 13:33:00,
2013-10-01 09:39:00,62.7,61.2,30.19,SW,225,0.0,0.0,95,0.00,,,0.00,WUHU216DAVISVP2,2013-10-01 13:39:00,
2013-10-01 09:44:00,62.8,61.3,30.19,SW,225,0.0,0.0,95,0.00,,,0.00,WUHU216DAVISVP2,2013-10-01 13:44:00,
2013-10-01 09:49:00,63.1,61.3,30.19,SW,225,0.0,0.0,94,0.00,,,0.00,WUHU216DAVISVP2,2013-10-01 13:49:00,
2013-10-01 09:54:00,63.4,61.6,30.19,SW,225,0.0,0.0,94,0.00,,,0.00,WUHU216DAVISVP2,2013-10-01 13:54:00,
2013-10-01 09:59:00,63.9,61.8,30.19,SW,225,0.0,0.0,93,0.00,,,0.00,WUHU216DAVISVP2,2013-10-01 13:59:00,
2013-10-01 10:05:00,64.7,62.6,30.19,NNE,22,0.0,0.0,93,0.00,,,0.00,WUHU216DAVISVP2,2013-10-01 14:05:00,
2013-10-01 10:10:00,65.5,62.8,30.19,SSW,200,0.0,0.0,91,0.00,,,0.00,WUHU216DAVISVP2,2013-10-01 14:10:00,
2013-10-01 10:15:00,65.7,62.0,30.19,SSW,200,0.0,0.0,88,0.00,,,0.00,WUHU216DAVISVP2,2013-10-01 14:15:00,
2013-10-01 10:20:00,66.2,62.8,30.19,SSW,200,0.0,0.0,89,0.00,,,0.00,WUHU216DAVISVP2,2013-10-01 14:20:00,
2013-10-01 10:25:00,67.0,63.3,30.19,SSE,150,0.0,0.0,88,0.00,,,0.00,WUHU216DAVISVP2,2013-10-01 14:25:00,
2013-10-01 10:31:00,67.6,63.9,30.19,SSE,150,0.0,0.0,88,0.00,,,0.00,WUHU216DAVISVP2,2013-10-01 14:31:00,
2013-10-01 10:36:00,68.6,64.2,30.19,SSE,150,0.0,0.0,86,0.00,,,0.00,WUHU216DAVISVP2,2013-10-01 14:36:00,
2013-10-01 10:41:00,68.9,63.6,30.19,South,190,0.0,4.0,83,0.00,,,0.00,WUHU216DAVISVP2,2013-10-01 14:41:00,
2013-10-01 10:46:00,69.0,63.7,30.19,South,190,0.0,4.0,83,0.00,,,0.00,WUHU216DAVISVP2,2013-10-01 14:46:00,
2013-10-01 10:51:00,68.7,63.0,30.19,South,190,0.0,4.0,82,0.00,,,0.00,WUHU216DAVISVP2,2013-10-01 14:51:00,
2013-10-01 10:56:00,68.8,63.5,30.19,South,190,0.0,4.0,83,0.00,,,0.00,WUHU216DAVISVP2,2013-10-01 14:56:00,
2013-10-01 11:02:00,69.2,63.2,30.19,South,190,0.0,0.0,81,0.00,,,0.00,WUHU216DAVISVP2,2013-10-01 15:02:00,
2013-10-01 11:07:00,70.5,65.1,30.19,South,178,0.0,0.0,83,0.00,,,0.00,WUHU216DAVISVP2,2013-10-01 15:07:00,
2013-10-01 11:12:00,71.2,64.8,30.19,South,178,0.0,0.0,80,0.00,,,0.00,WUHU216DAVISVP2,2013-10-01 15:12:00,
2013-10-01 11:18:00,71.5,63.9,30.19,North,5,0.0,6.0,77,0.00,,,0.00,WUHU216DAVISVP2,2013-10-01 15:18:00,
2013-10-01 11:23:00,71.9,65.1,30.19,NW,317,0.0,6.0,79,0.00,,,0.00,WUHU216DAVISVP2,2013-10-01 15:23:00,
2013-10-01 11:28:00,72.0,65.1,30.19,NW,317,0.0,5.0,79,0.00,,,0.00,WUHU216DAVISVP2,2013-10-01 15:28:00,
2013-10-01 11:33:00,72.2,64.6,30.18,South,176,0.0,3.0,77,0.00,,,0.00,WUHU216DAVISVP2,2013-10-01 15:33:00,
2013-10-01 11:38:00,72.6,64.7,30.18,South,182,0.0,0.0,76,0.00,,,0.00,WUHU216DAVISVP2,2013-10-01 15:38:00,
2013-10-01 11:43:00,73.3,65.8,30.18,South,191,0.0,0.0,77,0.00,,,0.00,WUHU216DAVISVP2,2013-10-01 15:43:00,
2013-10-01 11:49:00,73.8,65.5,30.18,SW,236,0.0,0.0,75,0.00,,,0.00,WUHU216DAVISVP2,2013-10-01 15:49:00,
2013-10-01 11:54:00,73.9,65.9,30.18,SW,236,0.0,1.0,76,0.00,,,0.00,WUHU216DAVISVP2,2013-10-01 15:54:00,
2013-10-01 11:59:00,74.0,65.2,30.18,SW,236,0.0,1.0,74,0.00,,,0.00,WUHU216DAVISVP2,2013-10-01 15:59:00,
2013-10-01 12:04:00,73.9,65.1,30.18,South,190,0.0,4.0,74,0.00,,,0.00,WUHU216DAVISVP2,2013-10-01 16:04:00,
2013-10-01 12:09:00,74.2,65.5,30.18,SSW,201,0.0,4.0,74,0.00,,,0.00,WUHU216DAVISVP2,2013-10-01 16:09:00,
2013-10-01 12:14:00,74.9,66.2,30.18,South,191,0.0,7.0,74,0.00,,,0.00,WUHU216DAVISVP2,2013-10-01 16:14:00,
2013-10-01 12:19:00,74.8,65.7,30.18,SW,223,0.0,7.0,73,0.00,,,0.00,WUHU216DAVISVP2,2013-10-01 16:19:00,
2013-10-01 12:25:00,74.6,65.8,30.18,SW,223,0.0,7.0,74,0.00,,,0.00,WUHU216DAVISVP2,2013-10-01 16:25:00,
2013-10-01 12:30:00,74.3,65.5,30.18,SW,223,0.0,7.0,74,0.00,,,0.00,WUHU216DAVISVP2,2013-10-01 16:30:00,
2013-10-01 12:35:00,73.7,66.2,30.17,SW,223,0.0,0.0,77,0.00,,,0.00,WUHU216DAVISVP2,2013-10-01 16:35:00,
2013-10-01 12:40:00,73.8,65.9,30.17,SW,223,0.0,0.0,76,0.00,,,0.00,WUHU216DAVISVP2,2013-10-01 16:40:00,
2013-10-01 12:45:00,74.3,65.6,30.17,WSW,237,0.0,0.0,74,0.00,,,0.00,WUHU216DAVISVP2,2013-10-01 16:45:00,
2013-10-01 12:50:00,74.8,65.2,30.17,WSW,237,0.0,0.0,72,0.00,,,0.00,WUHU216DAVISVP2,2013-10-01 16:50:00,
2013-10-01 12:55:00,74.4,66.0,30.17,WSW,237,0.0,0.0,75,0.00,,,0.00,WUHU216DAVISVP2,2013-10-01 16:55:00,
2013-10-01 13:01:00,74.4,65.6,30.17,SSW,199,0.0,0.0,74,0.00,,,0.00,WUHU216DAVISVP2,2013-10-01 17:01:00,
2013-10-01 13:06:00,74.4,65.7,30.16,SSW,199,0.0,0.0,74,0.00,,,0.00,WUHU216DAVISVP2,2013-10-01 17:06:00,
2013-10-01 13:11:00,74.0,66.1,30.16,SSW,198,0.0,0.0,76,0.00,,,0.00,WUHU216DAVISVP2,2013-10-01 17:11:00,
2013-10-01 13:16:00,73.6,65.6,30.16,SSW,198,0.0,0.0,76,0.00,,,0.00,WUHU216DAVISVP2,2013-10-01 17:16:00,
2013-10-01 13:21:00,73.6,66.3,30.16,SSW,199,0.0,0.0,78,0.00,,,0.00,WUHU216DAVISVP2,2013-10-01 17:21:00,
2013-10-01 13:26:00,74.2,66.5,30.15,SSW,199,0.0,0.0,77,0.00,,,0.00,WUHU216DAVISVP2,2013-10-01 17:26:00,
2013-10-01 13:32:00,75.5,67.2,30.15,South,186,0.0,0.0,75,0.00,,,0.00,WUHU216DAVISVP2,2013-10-01 17:32:00,
2013-10-01 13:37:00,76.4,68.1,30.15,NNW,344,0.0,0.0,75,0.00,,,0.00,WUHU216DAVISVP2,2013-10-01 17:37:00,
2013-10-01 13:42:00,77.0,66.9,30.15,South,184,0.0,5.0,71,0.00,,,0.00,WUHU216DAVISVP2,2013-10-01 17:42:00,
2013-10-01 13:47:00,77.4,66.4,30.14,SSW,192,0.0,5.0,69,0.00,,,0.00,WUHU216DAVISVP2,2013-10-01 17:47:00,
2013-10-01 13:52:00,77.5,67.4,30.14,SSW,192,0.0,5.0,71,0.00,,,0.00,WUHU216DAVISVP2,2013-10-01 17:52:00,
2013-10-01 13:57:00,77.5,68.3,30.14,ESE,111,0.0,5.0,73,0.00,,,0.00,WUHU216DAVISVP2,2013-10-01 17:57:00,
2013-10-01 14:02:00,77.4,67.7,30.14,SSE,160,0.0,0.0,72,0.00,,,0.00,WUHU216DAVISVP2,2013-10-01 18:02:00,
2013-10-01 14:08:00,77.7,68.1,30.13,SSE,160,0.0,0.0,72,0.00,,,0.00,WUHU216DAVISVP2,2013-10-01 18:08:00,
2013-10-01 14:20:00,77.9,68.3,30.13,SSE,159,2.0,4.0,72,0.00,,,0.00,WUHU216DAVISVP2,2013-10-01 18:20:00,
2013-10-01 14:26:00,79.2,68.1,30.13,SSE,153,0.0,4.0,69,0.00,,,0.00,WUHU216DAVISVP2,2013-10-01 18:26:00,
2013-10-01 14:31:00,79.4,68.6,30.12,SSW,202,0.0,4.0,69,0.00,,,0.00,WUHU216DAVISVP2,2013-10-01 18:31:00,
2013-10-01 14:37:00,80.0,67.6,30.12,SSW,202,0.0,4.0,66,0.00,,,0.00,WUHU216DAVISVP2,2013-10-01 18:37:00,
2013-10-01 14:42:00,80.6,68.4,30.12,SSW,205,4.0,8.0,66,0.00,,,0.00,WUHU216DAVISVP2,2013-10-01 18:42:00,
2013-10-01 14:48:00,81.0,69.0,30.12,SSW,198,0.0,8.0,67,0.00,,,0.00,WUHU216DAVISVP2,2013-10-01 18:48:00,
2013-10-01 14:53:00,81.0,67.7,30.11,SSW,198,0.0,8.0,64,0.00,,,0.00,WUHU216DAVISVP2,2013-10-01 18:53:00,
2013-10-01 14:58:00,80.3,67.7,30.11,SSW,203,0.0,8.0,65,0.00,,,0.00,WUHU216DAVISVP2,2013-10-01 18:58:00,
2013-10-01 15:03:00,80.3,68.1,30.11,SSW,203,2.0,6.0,66,0.00,,,0.00,WUHU216DAVISVP2,2013-10-01 19:03:00,
2013-10-01 15:08:00,80.4,67.4,30.11,South,185,0.0,6.0,64,0.00,,,0.00,WUHU216DAVISVP2,2013-10-01 19:08:00,
2013-10-01 15:13:00,79.6,67.0,30.11,South,184,0.0,6.0,65,0.00,,,0.00,WUHU216DAVISVP2,2013-10-01 19:13:00,
2013-10-01 15:19:00,79.7,67.6,30.11,South,184,0.0,6.0,66,0.00,,,0.00,WUHU216DAVISVP2,2013-10-01 19:19:00,
2013-10-01 15:24:00,79.4,66.8,30.10,SSW,209,0.0,7.0,65,0.00,,,0.00,WUHU216DAVISVP2,2013-10-01 19:24:00,
2013-10-01 15:29:00,79.8,66.8,30.10,SSW,206,1.0,7.0,64,0.00,,,0.00,WUHU216DAVISVP2,2013-10-01 19:29:00,
2013-10-01 15:34:00,80.2,66.5,30.10,SSE,155,0.0,7.0,63,0.00,,,0.00,WUHU216DAVISVP2,2013-10-01 19:34:00,
2013-10-01 15:39:00,79.8,68.1,30.10,SW,229,0.0,7.0,67,0.00,,,0.00,WUHU216DAVISVP2,2013-10-01 19:39:00,
2013-10-01 15:45:00,79.2,68.0,30.10,SW,228,0.0,7.0,68,0.00,,,0.00,WUHU216DAVISVP2,2013-10-01 19:45:00,
2013-10-01 15:50:00,78.6,68.0,30.10,SW,228,0.0,4.0,70,0.00,,,0.00,WUHU216DAVISVP2,2013-10-01 19:50:00,
2013-10-01 15:55:00,78.1,66.5,30.10,SW,229,0.0,0.0,67,0.00,,,0.00,WUHU216DAVISVP2,2013-10-01 19:55:00,
2013-10-01 16:00:00,78.0,67.2,30.10,SW,228,0.0,0.0,69,0.00,,,0.00,WUHU216DAVISVP2,2013-10-01 20:00:00,
2013-10-01 16:05:00,78.4,66.1,30.09,SW,228,0.0,0.0,66,0.00,,,0.00,WUHU216DAVISVP2,2013-10-01 20:05:00,
2013-10-01 16:11:00,79.5,66.5,30.09,SW,229,0.0,0.0,64,0.00,,,0.00,WUHU216DAVISVP2,2013-10-01 20:11:00,
2013-10-01 16:16:00,80.5,66.5,30.09,SW,229,0.0,0.0,62,0.00,,,0.00,WUHU216DAVISVP2,2013-10-01 20:16:00,
2013-10-01 16:21:00,81.0,67.5,30.09,SW,229,0.0,0.0,63,0.00,,,0.00,WUHU216DAVISVP2,2013-10-01 20:21:00,
2013-10-01 16:26:00,81.2,67.2,30.09,SSW,200,3.0,5.0,62,0.00,,,0.00,WUHU216DAVISVP2,2013-10-01 20:26:00,
2013-10-01 16:31:00,81.6,66.1,30.09,WSW,238,0.0,5.0,59,0.00,,,0.00,WUHU216DAVISVP2,2013-10-01 20:31:00,
2013-10-01 16:37:00,82.0,67.0,30.09,SW,215,3.0,6.0,60,0.00,,,0.00,WUHU216DAVISVP2,2013-10-01 20:37:00,
2013-10-01 16:42:00,82.1,68.0,30.09,SW,215,0.0,6.0,62,0.00,,,0.00,WUHU216DAVISVP2,2013-10-01 20:42:00,
2013-10-01 16:48:00,82.1,67.1,30.09,SSW,207,0.0,6.0,60,0.00,,,0.00,WUHU216DAVISVP2,2013-10-01 20:48:00,
2013-10-01 16:53:00,81.8,67.8,30.09,SSE,153,0.0,6.0,62,0.00,,,0.00,WUHU216DAVISVP2,2013-10-01 20:53:00,
2013-10-01 16:59:00,81.6,67.1,30.08,SSE,152,0.0,0.0,61,0.00,,,0.00,WUHU216DAVISVP2,2013-10-01 20:59:00,
2013-10-01 17:04:00,81.2,66.7,30.09,SSE,150,0.0,0.0,61,0.00,,,0.00,WUHU216DAVISVP2,2013-10-01 21:04:00,
2013-10-01 17:09:00,80.8,69.1,30.09,SSE,150,0.0,0.0,67,0.00,,,0.00,WUHU216DAVISVP2,2013-10-01 21:09:00,
2013-10-01 17:15:00,80.5,67.9,30.08,SSE,150,0.0,0.0,65,0.00,,,0.00,WUHU216DAVISVP2,2013-10-01 21:15:00,
2013-10-01 17:20:00,79.7,68.4,30.08,SSE,150,0.0,0.0,68,0.00,,,0.00,WUHU216DAVISVP2,2013-10-01 21:20:00,
2013-10-01 17:25:00,79.3,66.3,30.08,SSE,150,0.0,0.0,64,0.00,,,0.00,WUHU216DAVISVP2,2013-10-01 21:25:00,
2013-10-01 17:31:00,78.9,67.2,30.08,SSE,150,0.0,0.0,67,0.00,,,0.00,WUHU216DAVISVP2,2013-10-01 21:31:00,
2013-10-01 17:36:00,78.7,67.1,30.08,SSE,164,0.0,0.0,67,0.00,,,0.00,WUHU216DAVISVP2,2013-10-01 21:36:00,
2013-10-01 17:41:00,78.4,67.6,30.08,SSE,165,0.0,0.0,69,0.00,,,0.00,WUHU216DAVISVP2,2013-10-01 21:41:00,
2013-10-01 17:46:00,78.3,67.1,30.08,SSE,164,0.0,0.0,68,0.00,,,0.00,WUHU216DAVISVP2,2013-10-01 21:46:00,
2013-10-01 17:51:00,78.1,66.5,30.09,SSE,164,0.0,0.0,67,0.00,,,0.00,WUHU216DAVISVP2,2013-10-01 21:51:00,
2013-10-01 17:56:00,77.7,67.8,30.09,SSE,164,0.0,0.0,71,0.00,,,0.00,WUHU216DAVISVP2,2013-10-01 21:56:00,
2013-10-01 18:02:00,77.6,66.8,30.09,SSE,165,0.0,0.0,69,0.00,,,0.00,WUHU216DAVISVP2,2013-10-01 22:02:00,
2013-10-01 18:08:00,77.8,66.6,30.09,SSE,165,0.0,0.0,68,0.00,,,0.00,WUHU216DAVISVP2,2013-10-01 22:08:00,
2013-10-01 18:13:00,77.7,67.3,30.09,SSE,165,0.0,0.0,70,0.00,,,0.00,WUHU216DAVISVP2,2013-10-01 22:13:00,
2013-10-01 18:18:00,77.3,67.8,30.09,SSE,165,0.0,0.0,72,0.00,,,0.00,WUHU216DAVISVP2,2013-10-01 22:18:00,
2013-10-01 18:23:00,76.9,67.8,30.09,SSE,165,0.0,0.0,73,0.00,,,0.00,WUHU216DAVISVP2,2013-10-01 22:23:00,
2013-10-01 18:28:00,76.6,68.6,30.09,SSE,164,0.0,0.0,76,0.00,,,0.00,WUHU216DAVISVP2,2013-10-01 22:28:00,
2013-10-01 18:45:00,75.4,67.8,30.09,SSE,164,0.0,0.0,77,0.00,,,0.00,WUHU216DAVISVP2,2013-10-01 22:45:00,
2013-10-01 18:54:00,74.6,68.5,30.09,SSE,165,0.0,0.0,81,0.00,,,0.00,WUHU216DAVISVP2,2013-10-01 22:54:00,
2013-10-01 19:00:00,74.0,68.2,30.09,SSE,165,0.0,0.0,82,0.00,,,0.00,WUHU216DAVISVP2,2013-10-01 23:00:00,
2013-10-01 19:05:00,73.5,68.0,30.09,SSE,165,0.0,0.0,83,0.00,,,0.00,WUHU216DAVISVP2,2013-10-01 23:05:00,
2013-10-01 19:10:00,72.9,67.8,30.09,SSE,165,0.0,0.0,84,0.00,,,0.00,WUHU216DAVISVP2,2013-10-01 23:10:00,
2013-10-01 19:15:00,72.3,67.6,30.09,SSE,164,0.0,0.0,85,0.00,,,0.00,WUHU216DAVISVP2,2013-10-01 23:15:00,
2013-10-01 19:20:00,71.7,67.0,30.09,SSE,165,0.0,0.0,85,0.00,,,0.00,WUHU216DAVISVP2,2013-10-01 23:20:00,
2013-10-01 19:25:00,71.1,66.7,30.09,SSE,164,0.0,0.0,86,0.00,,,0.00,WUHU216DAVISVP2,2013-10-01 23:25:00,
2013-10-01 19:31:00,70.7,66.3,30.10,SSE,164,0.0,0.0,86,0.00,,,0.00,WUHU216DAVISVP2,2013-10-01 23:31:00,
2013-10-01 19:36:00,70.4,66.3,30.10,SSE,165,0.0,0.0,87,0.00,,,0.00,WUHU216DAVISVP2,2013-10-01 23:36:00,
2013-10-01 19:41:00,70.0,66.0,30.10,SSE,164,0.0,0.0,87,0.00,,,0.00,WUHU216DAVISVP2,2013-10-01 23:41:00,
2013-10-01 19:51:00,69.2,65.5,30.10,SSE,164,0.0,0.0,88,0.00,,,0.00,WUHU216DAVISVP2,2013-10-01 23:51:00,
2013-10-01 19:56:00,68.7,65.0,30.10,SSE,165,0.0,0.0,88,0.00,,,0.00,WUHU216DAVISVP2,2013-10-01 23:56:00,
2013-10-01 20:01:00,68.4,65.0,30.10,SSE,165,0.0,0.0,89,0.00,,,0.00,WUHU216DAVISVP2,2013-10-02 00:01:00,
2013-10-01 20:07:00,68.2,64.8,30.11,SSE,164,0.0,0.0,89,0.00,,,0.00,WUHU216DAVISVP2,2013-10-02 00:07:00,
2013-10-01 20:12:00,68.0,64.9,30.11,SSE,164,0.0,0.0,90,0.00,,,0.00,WUHU216DAVISVP2,2013-10-02 00:12:00,
2013-10-01 20:17:00,67.8,64.7,30.11,SSE,164,0.0,0.0,90,0.00,,,0.00,WUHU216DAVISVP2,2013-10-02 00:17:00,
2013-10-01 20:22:00,67.6,64.6,30.10,SSE,165,0.0,0.0,90,0.00,,,0.00,WUHU216DAVISVP2,2013-10-02 00:22:00,
2013-10-01 20:27:00,67.4,64.4,30.11,SSE,165,0.0,0.0,90,0.00,,,0.00,WUHU216DAVISVP2,2013-10-02 00:27:00,
2013-10-01 20:32:00,67.3,64.2,30.11,SSE,165,0.0,0.0,90,0.00,,,0.00,WUHU216DAVISVP2,2013-10-02 00:32:00,
2013-10-01 20:37:00,67.1,64.4,30.11,SSE,164,0.0,0.0,91,0.00,,,0.00,WUHU216DAVISVP2,2013-10-02 00:37:00,
2013-10-01 20:42:00,67.0,64.3,30.11,SSE,165,0.0,0.0,91,0.00,,,0.00,WUHU216DAVISVP2,2013-10-02 00:42:00,
2013-10-01 20:47:00,66.8,64.1,30.11,SSE,164,0.0,0.0,91,0.00,,,0.00,WUHU216DAVISVP2,2013-10-02 00:47:00,
2013-10-01 20:52:00,66.5,63.8,30.11,SSE,165,0.0,0.0,91,0.00,,,0.00,WUHU216DAVISVP2,2013-10-02 00:52:00,
2013-10-01 20:57:00,66.3,63.9,30.11,SSE,165,0.0,0.0,92,0.00,,,0.00,WUHU216DAVISVP2,2013-10-02 00:57:00,
2013-10-01 21:02:00,66.2,63.8,30.11,SSE,164,0.0,0.0,92,0.00,,,0.00,WUHU216DAVISVP2,2013-10-02 01:02:00,
2013-10-01 21:07:00,66.1,64.0,30.11,SSE,165,0.0,0.0,93,0.00,,,0.00,WUHU216DAVISVP2,2013-10-02 01:07:00,
2013-10-01 21:12:00,65.9,63.8,30.12,SSE,165,0.0,0.0,93,0.00,,,0.00,WUHU216DAVISVP2,2013-10-02 01:12:00,
2013-10-01 21:17:00,65.8,63.7,30.12,SSE,165,0.0,0.0,93,0.00,,,0.00,WUHU216DAVISVP2,2013-10-02 01:17:00,
2013-10-01 21:22:00,65.7,63.6,30.12,SSE,164,0.0,0.0,93,0.00,,,0.00,WUHU216DAVISVP2,2013-10-02 01:22:00,
2013-10-01 21:27:00,65.6,63.5,30.12,SSE,164,0.0,0.0,93,0.00,,,0.00,WUHU216DAVISVP2,2013-10-02 01:27:00,
2013-10-01 21:32:00,65.4,63.3,30.13,SSE,165,0.0,0.0,93,0.00,,,0.00,WUHU216DAVISVP2,2013-10-02 01:32:00,
2013-10-01 21:37:00,65.3,63.2,30.13,SSE,165,0.0,0.0,93,0.00,,,0.00,WUHU216DAVISVP2,2013-10-02 01:37:00,
2013-10-01 21:42:00,65.2,63.4,30.13,SSE,165,0.0,0.0,94,0.00,,,0.00,WUHU216DAVISVP2,2013-10-02 01:42:00,
2013-10-01 21:47:00,65.2,63.4,30.13,SSE,165,0.0,0.0,94,0.00,,,0.00,WUHU216DAVISVP2,2013-10-02 01:47:00,
2013-10-01 21:52:00,65.2,63.4,30.13,SSE,165,0.0,0.0,94,0.00,,,0.00,WUHU216DAVISVP2,2013-10-02 01:52:00,
2013-10-01 21:57:00,65.1,63.3,30.13,SSE,164,0.0,0.0,94,0.00,,,0.00,WUHU216DAVISVP2,2013-10-02 01:57:00,
2013-10-01 22:02:00,65.0,63.2,30.13,SSE,164,0.0,0.0,94,0.00,,,0.00,WUHU216DAVISVP2,2013-10-02 02:02:00,
2013-10-01 22:07:00,65.0,63.2,30.13,SSE,165,0.0,0.0,94,0.00,,,0.00,WUHU216DAVISVP2,2013-10-02 02:07:00,
2013-10-01 22:12:00,65.0,63.2,30.14,SSE,165,0.0,0.0,94,0.00,,,0.00,WUHU216DAVISVP2,2013-10-02 02:12:00,
2013-10-01 22:17:00,64.9,63.1,30.13,SSE,165,0.0,0.0,94,0.00,,,0.00,WUHU216DAVISVP2,2013-10-02 02:17:00,
2013-10-01 22:22:00,64.9,63.1,30.14,SSE,165,0.0,0.0,94,0.00,,,0.00,WUHU216DAVISVP2,2013-10-02 02:22:00,
2013-10-01 22:27:00,64.9,63.4,30.14,SSE,164,0.0,0.0,95,0.00,,,0.00,WUHU216DAVISVP2,2013-10-02 02:27:00,
2013-10-01 22:32:00,65.0,63.5,30.14,SSE,165,0.0,0.0,95,0.00,,,0.00,WUHU216DAVISVP2,2013-10-02 02:32:00,
2013-10-01 22:37:00,65.2,63.7,30.14,SSE,164,0.0,0.0,95,0.00,,,0.00,WUHU216DAVISVP2,2013-10-02 02:37:00,
2013-10-01 22:42:00,65.3,63.8,30.14,SSE,164,0.0,0.0,95,0.00,,,0.00,WUHU216DAVISVP2,2013-10-02 02:42:00,
2013-10-01 22:47:00,65.3,63.8,30.14,SSE,165,0.0,0.0,95,0.00,,,0.00,WUHU216DAVISVP2,2013-10-02 02:47:00,
2013-10-01 22:52:00,65.4,63.9,30.14,SSE,165,0.0,0.0,95,0.00,,,0.00,WUHU216DAVISVP2,2013-10-02 02:52:00,
2013-10-01 22:57:00,65.3,63.8,30.14,SSE,165,0.0,0.0,95,0.00,,,0.00,WUHU216DAVISVP2,2013-10-02 02:57:00,
2013-10-01 23:02:00,65.2,63.7,30.14,SSE,165,0.0,0.0,95,0.00,,,0.00,WUHU216DAVISVP2,2013-10-02 03:02:00,
2013-10-01 23:07:00,65.2,63.7,30.14,SSE,165,0.0,0.0,95,0.00,,,0.00,WUHU216DAVISVP2,2013-10-02 03:07:00,
2013-10-01 23:12:00,65.2,63.7,30.14,SSE,164,0.0,0.0,95,0.00,,,0.00,WUHU216DAVISVP2,2013-10-02 03:12:00,
2013-10-01 23:17:00,65.1,63.6,30.14,SSE,165,0.0,0.0,95,0.00,,,0.00,WUHU216DAVISVP2,2013-10-02 03:17:00,
2013-10-01 23:22:00,65.1,63.6,30.14,SSE,164,0.0,0.0,95,0.00,,,0.00,WUHU216DAVISVP2,2013-10-02 03:22:00,
2013-10-01 23:27:00,65.1,63.6,30.14,SSE,165,0.0,0.0,95,0.00,,,0.00,WUHU216DAVISVP2,2013-10-02 03:27:00,
2013-10-01 23:32:00,65.1,63.6,30.14,SSE,165,0.0,0.0,95,0.00,,,0.00,WUHU216DAVISVP2,2013-10-02 03:32:00,
2013-10-01 23:37:00,65.1,63.6,30.14,SSE,165,0.0,0.0,95,0.00,,,0.00,WUHU216DAVISVP2,2013-10-02 03:37:00,
2013-10-01 23:42:00,65.1,63.6,30.14,SSE,164,0.0,0.0,95,0.00,,,0.00,WUHU216DAVISVP2,2013-10-02 03:42:00,
2013-10-01 23:47:00,65.0,63.5,30.14,SSE,165,0.0,0.0,95,0.00,,,0.00,WUHU216DAVISVP2,2013-10-02 03:47:00,
2013-10-01 23:52:00,65.1,63.6,30.14,SSE,165,0.0,0.0,95,0.00,,,0.00,WUHU216DAVISVP2,2013-10-02 03:52:00,
2013-10-01 23:57:00,65.0,63.5,30.14,SSE,165,0.0,0.0,95,0.00,,,0.00,WUHU216DAVISVP2,2013-10-02 03:57:00,